createdAt,value
2022-08-25T00:00:06.326Z,19.95
2022-08-25T00:02:27.828Z,19.96
2022-08-25T00:04:53.605Z,19.93
2022-08-25T00:07:18.538Z,19.74
2022-08-25T00:09:40.405Z,19.78
2022-08-25T00:12:04.246Z,19.86
2022-08-25T00:14:33.515Z,19.79
2022-08-25T00:16:56.239Z,19.65
2022-08-25T00:19:22.628Z,19.59
2022-08-25T00:21:45.358Z,19.57
2022-08-25T00:24:08.942Z,19.60
2022-08-25T00:26:31.049Z,19.65
2022-08-25T00:28:54.194Z,19.65
2022-08-25T00:31:37.506Z,19.45
2022-08-25T00:34:01.188Z,19.45
2022-08-25T00:36:22.675Z,19.46
2022-08-25T00:38:46.038Z,19.44
2022-08-25T00:41:08.495Z,19.37
2022-08-25T00:43:45.642Z,19.23
2022-08-25T00:46:10.961Z,19.17
2022-08-25T00:48:32.546Z,19.11
2022-08-25T00:50:54.029Z,19.27
2022-08-25T00:53:15.931Z,19.30
2022-08-25T00:55:40.238Z,19.32
2022-08-25T00:58:20.176Z,19.30
2022-08-25T01:00:45.677Z,19.15
2022-08-25T01:03:07.472Z,19.01
2022-08-25T01:05:30.630Z,19.06
2022-08-25T01:07:52.806Z,19.09
2022-08-25T01:10:22.155Z,19.14
2022-08-25T01:12:43.992Z,19.08
2022-08-25T01:15:08.164Z,19.11
2022-08-25T01:17:54.400Z,19.15
2022-08-25T01:20:19.400Z,19.16
2022-08-25T01:22:41.219Z,18.99
2022-08-25T01:25:07.715Z,18.90
2022-08-25T01:27:29.464Z,18.88
2022-08-25T01:29:51.112Z,18.85
2022-08-25T01:32:14.962Z,18.70
2022-08-25T01:34:38.934Z,18.63
2022-08-25T01:37:01.290Z,18.65
2022-08-25T01:39:22.968Z,18.71
2022-08-25T01:42:23.235Z,18.78
2022-08-25T01:44:46.429Z,18.55
2022-08-25T01:47:08.616Z,18.58
2022-08-25T01:49:30.321Z,18.62
2022-08-25T01:51:56.811Z,18.65
2022-08-25T01:54:18.790Z,18.67
2022-08-25T01:56:41.370Z,18.65
2022-08-25T01:59:02.933Z,18.67
2022-08-25T02:01:24.796Z,18.56
2022-08-25T02:03:49.701Z,18.37
2022-08-25T02:06:13.810Z,18.50
2022-08-25T02:08:35.349Z,18.49
2022-08-25T02:10:56.837Z,18.47
2022-08-25T02:13:20.106Z,18.37
2022-08-25T02:15:52.414Z,18.42
2022-08-25T02:18:14.576Z,18.43
2022-08-25T02:20:36.996Z,18.32
2022-08-25T02:22:58.447Z,18.29
2022-08-25T02:25:20.251Z,18.36
2022-08-25T02:27:41.727Z,18.42
2022-08-25T02:30:05.561Z,18.23
2022-08-25T02:32:27.809Z,18.24
2022-08-25T02:34:49.420Z,18.19
2022-08-25T02:37:10.892Z,18.15
2022-08-25T02:39:32.367Z,18.12
2022-08-25T02:41:54.270Z,18.19
2022-08-25T02:44:16.045Z,18.22
2022-08-25T02:46:37.946Z,18.21
2022-08-25T02:48:59.878Z,18.27
2022-08-25T02:51:23.455Z,18.29
2022-08-25T02:53:47.019Z,18.15
2022-08-25T02:56:10.234Z,18.03
2022-08-25T02:58:31.688Z,17.98
2022-08-25T03:00:53.242Z,18.00
2022-08-25T03:03:15.458Z,18.03
2022-08-25T03:05:37.065Z,18.06
2022-08-25T03:07:58.707Z,18.04
2022-08-25T03:10:20.777Z,18.05
2022-08-25T03:12:42.738Z,17.92
2022-08-25T03:15:04.852Z,17.77
2022-08-25T03:17:30.652Z,17.82
2022-08-25T03:19:57.346Z,17.88
2022-08-25T03:22:18.792Z,17.90
2022-08-25T03:24:40.292Z,18.00
2022-08-25T03:27:01.783Z,18.08
2022-08-25T03:29:27.718Z,17.93
2022-08-25T03:31:50.211Z,17.72
2022-08-25T03:34:17.035Z,17.76
2022-08-25T03:36:38.533Z,17.76
2022-08-25T03:39:00.549Z,17.82
2022-08-25T03:41:25.650Z,17.55
2022-08-25T03:43:50.300Z,17.57
2022-08-25T03:46:25.345Z,17.59
2022-08-25T03:48:46.879Z,17.59
2022-08-25T03:51:08.320Z,17.66
2022-08-25T03:53:29.881Z,17.69
2022-08-25T03:55:51.592Z,17.76
2022-08-25T03:58:13.489Z,17.77
2022-08-25T04:00:35.380Z,17.42
2022-08-25T04:02:56.944Z,17.44
2022-08-25T04:05:18.508Z,17.52
2022-08-25T04:07:41.993Z,17.54
2022-08-25T04:10:06.026Z,17.61
2022-08-25T04:12:27.694Z,17.63
2022-08-25T04:14:49.334Z,17.58
2022-08-25T04:17:10.766Z,17.43
2022-08-25T04:19:32.245Z,17.46
2022-08-25T04:21:56.625Z,17.51
2022-08-25T04:24:19.271Z,17.51
2022-08-25T04:26:51.642Z,17.55
2022-08-25T04:29:15.162Z,17.54
2022-08-25T04:31:40.213Z,17.42
2022-08-25T04:34:03.838Z,17.42
2022-08-25T04:36:32.747Z,17.41
2022-08-25T04:38:54.244Z,17.47
2022-08-25T04:41:19.573Z,17.33
2022-08-25T04:43:42.471Z,17.27
2022-08-25T04:46:11.164Z,17.06
2022-08-25T04:48:32.839Z,17.19
2022-08-25T04:50:54.339Z,17.31
2022-08-25T04:53:16.627Z,17.40
2022-08-25T04:55:48.046Z,17.34
2022-08-25T04:58:14.620Z,17.28
2022-08-25T05:00:38.295Z,17.17
2022-08-25T05:03:00.039Z,17.26
2022-08-25T05:05:23.057Z,17.37
2022-08-25T05:07:44.539Z,17.19
2022-08-25T05:10:06.440Z,17.22
2022-08-25T05:12:28.304Z,17.39
2022-08-25T05:14:53.888Z,17.41
2022-08-25T05:17:15.411Z,17.43
2022-08-25T05:19:36.856Z,17.49
2022-08-25T05:21:58.443Z,17.48
2022-08-25T05:24:20.957Z,17.44
2022-08-25T05:26:42.510Z,17.56
2022-08-25T05:29:05.330Z,17.63
2022-08-25T05:31:27.856Z,17.64
2022-08-25T05:33:50.287Z,17.75
2022-08-25T05:36:13.171Z,17.89
2022-08-25T05:38:34.647Z,17.96
2022-08-25T05:41:01.653Z,18.04
2022-08-25T05:43:23.105Z,18.11
2022-08-25T05:45:44.843Z,18.13
2022-08-25T05:48:06.914Z,18.15
2022-08-25T05:50:28.527Z,18.25
2022-08-25T05:52:50.085Z,18.33
2022-08-25T05:55:11.694Z,18.43
2022-08-25T05:57:33.967Z,18.51
2022-08-25T05:59:55.473Z,18.65
2022-08-25T06:02:35.364Z,18.75
2022-08-25T06:04:58.746Z,18.88
2022-08-25T06:07:21.063Z,19.02
2022-08-25T06:09:42.506Z,19.12
2022-08-25T06:12:04.027Z,19.19
2022-08-25T06:14:25.756Z,19.27
2022-08-25T06:16:48.819Z,19.40
2022-08-25T06:19:10.777Z,19.37
2022-08-25T06:21:32.712Z,19.48
2022-08-25T06:23:54.173Z,19.55
2022-08-25T06:26:21.195Z,19.64
2022-08-25T06:28:43.143Z,19.69
2022-08-25T06:31:05.427Z,19.76
2022-08-25T06:33:27.688Z,19.87
2022-08-25T06:35:49.316Z,19.98
2022-08-25T06:38:11.288Z,20.08
2022-08-25T06:40:32.786Z,20.17
2022-08-25T06:42:54.378Z,20.27
2022-08-25T06:45:16.196Z,20.27
2022-08-25T06:47:37.718Z,20.39
2022-08-25T06:49:59.166Z,20.49
2022-08-25T06:52:20.618Z,20.47
2022-08-25T06:54:42.229Z,20.62
2022-08-25T06:57:06.037Z,20.66
2022-08-25T06:59:32.182Z,20.79
2022-08-25T07:01:54.164Z,20.91
2022-08-25T07:04:15.791Z,21.00
2022-08-25T07:06:37.730Z,21.00
2022-08-25T07:08:59.682Z,21.15
2022-08-25T07:11:21.549Z,21.29
2022-08-25T07:13:43.452Z,21.38
2022-08-25T07:16:05.968Z,21.43
2022-08-25T07:18:27.497Z,21.59
2022-08-25T07:20:49.192Z,21.71
2022-08-25T07:23:10.695Z,21.84
2022-08-25T07:25:32.521Z,21.93
2022-08-25T07:27:58.577Z,22.01
2022-08-25T07:30:21.069Z,22.08
2022-08-25T07:32:43.287Z,22.20
2022-08-25T07:35:19.017Z,22.23
2022-08-25T07:37:49.191Z,22.51
2022-08-25T07:40:18.460Z,22.75
2022-08-25T07:42:40.091Z,22.79
2022-08-25T07:45:02.314Z,22.92
2022-08-25T07:47:23.821Z,23.05
2022-08-25T07:49:45.332Z,23.19
2022-08-25T07:52:07.046Z,23.15
2022-08-25T07:54:34.084Z,23.24
2022-08-25T07:56:56.176Z,23.43
2022-08-25T07:59:17.617Z,23.58
2022-08-25T08:01:40.224Z,23.79
2022-08-25T08:04:03.655Z,23.92
2022-08-25T08:06:25.685Z,23.97
2022-08-25T08:08:49.415Z,24.14
2022-08-25T08:11:34.460Z,24.45
2022-08-25T08:13:58.247Z,24.49
2022-08-25T08:16:21.528Z,24.81
2022-08-25T08:18:44.557Z,25.05
2022-08-25T08:21:12.816Z,25.37
2022-08-25T08:23:40.767Z,25.70
2022-08-25T08:26:02.873Z,25.92
2022-08-25T08:28:27.856Z,26.30
2022-08-25T08:30:53.164Z,26.37
2022-08-25T08:33:15.411Z,26.48
2022-08-25T08:35:37.194Z,26.86
2022-08-25T08:37:58.640Z,26.91
2022-08-25T08:40:20.999Z,26.92
2022-08-25T08:43:18.938Z,26.90
2022-08-25T08:45:51.915Z,26.94
2022-08-25T08:48:33.021Z,27.06
2022-08-25T08:51:10.418Z,27.14
2022-08-25T08:53:46.158Z,27.41
2022-08-25T08:56:15.864Z,27.69
2022-08-25T08:58:38.138Z,28.07
2022-08-25T09:01:01.859Z,27.99
2022-08-25T09:03:36.282Z,28.22
2022-08-25T09:06:07.405Z,28.29
2022-08-25T09:08:28.934Z,28.68
2022-08-25T09:10:54.197Z,28.84
2022-08-25T09:13:54.518Z,29.11
2022-08-25T09:16:43.651Z,29.37
2022-08-25T09:19:32.318Z,29.68
2022-08-25T09:22:35.520Z,29.99
2022-08-25T09:25:10.813Z,30.23
2022-08-25T09:27:44.055Z,30.29
2022-08-25T09:30:10.091Z,30.59
2022-08-25T09:32:35.255Z,30.94
2022-08-25T09:34:57.700Z,31.11
2022-08-25T09:37:19.761Z,31.03
2022-08-25T09:39:42.208Z,30.84
2022-08-25T09:42:04.369Z,30.91
2022-08-25T09:44:27.650Z,30.90
2022-08-25T09:47:05.419Z,30.92
2022-08-25T09:49:37.654Z,30.97
2022-08-25T09:52:21.371Z,30.93
2022-08-25T09:54:44.201Z,30.79
2022-08-25T09:57:09.281Z,30.88
2022-08-25T09:59:36.016Z,31.08
2022-08-25T10:02:00.267Z,30.92
2022-08-25T10:04:33.152Z,30.65
2022-08-25T10:06:55.764Z,30.56
2022-08-25T10:09:30.804Z,30.47
2022-08-25T10:11:57.666Z,30.28
2022-08-25T10:14:32.758Z,30.15
2022-08-25T10:17:17.231Z,30.33
2022-08-25T10:19:38.831Z,30.23
2022-08-25T10:22:24.859Z,30.43
2022-08-25T10:24:46.424Z,30.82
2022-08-25T10:27:17.764Z,31.25
2022-08-25T10:29:48.220Z,31.68
2022-08-25T10:32:28.202Z,32.11
2022-08-25T10:34:54.597Z,31.98
2022-08-25T10:37:38.387Z,32.12
2022-08-25T10:40:16.559Z,32.37
2022-08-25T10:42:58.121Z,32.31
2022-08-25T10:45:44.497Z,32.32
2022-08-25T10:48:20.396Z,32.51
2022-08-25T10:50:53.420Z,32.69
2022-08-25T10:53:23.910Z,32.72
2022-08-25T10:55:48.096Z,32.73
2022-08-25T10:58:23.172Z,32.96
2022-08-25T11:00:59.402Z,32.93
2022-08-25T11:03:35.323Z,33.31
2022-08-25T11:06:02.919Z,33.32
2022-08-25T11:08:44.486Z,33.46
2022-08-25T11:11:12.951Z,33.50
2022-08-25T11:13:44.037Z,33.80
2022-08-25T11:16:17.463Z,33.38
2022-08-25T11:18:48.982Z,33.59
2022-08-25T11:21:17.952Z,33.54
2022-08-25T11:24:05.763Z,33.35
2022-08-25T11:26:36.924Z,33.53
2022-08-25T11:29:12.769Z,33.44
2022-08-25T11:31:42.004Z,33.05
2022-08-25T11:34:03.539Z,33.55
2022-08-25T11:36:30.789Z,33.93
2022-08-25T11:39:09.842Z,34.00
2022-08-25T11:41:58.975Z,34.10
2022-08-25T11:44:53.251Z,34.13
2022-08-25T11:47:27.077Z,34.58
2022-08-25T11:50:02.093Z,34.54
2022-08-25T11:52:32.643Z,34.63
2022-08-25T11:54:54.144Z,34.95
2022-08-25T11:57:23.409Z,35.04
2022-08-25T11:59:51.502Z,35.34
2022-08-25T12:02:32.358Z,35.58
2022-08-25T12:04:55.427Z,35.42
2022-08-25T12:07:20.937Z,35.37
2022-08-25T12:10:03.465Z,35.85
2022-08-25T12:12:39.761Z,36.00
2022-08-25T12:15:42.732Z,36.07
2022-08-25T12:18:13.607Z,36.06
2022-08-25T12:20:57.902Z,36.34
2022-08-25T12:23:51.567Z,36.39
2022-08-25T12:26:26.536Z,36.12
2022-08-25T12:29:23.683Z,36.60
2022-08-25T12:32:05.020Z,37.35
2022-08-25T12:34:49.725Z,37.30
2022-08-25T12:37:15.380Z,37.57
2022-08-25T12:39:44.970Z,37.96
2022-08-25T12:42:19.924Z,37.97
2022-08-25T12:44:47.886Z,37.87
2022-08-25T12:47:19.755Z,37.93
2022-08-25T12:49:45.879Z,37.14
2022-08-25T12:52:18.234Z,37.02
2022-08-25T12:54:47.711Z,37.17
2022-08-25T12:57:34.422Z,37.32
2022-08-25T12:59:58.702Z,37.89
2022-08-25T13:02:54.288Z,38.49
2022-08-25T13:05:53.583Z,38.43
2022-08-25T13:08:46.913Z,39.13
2022-08-25T13:11:17.376Z,39.13
2022-08-25T13:14:00.416Z,39.18
2022-08-25T13:16:29.817Z,38.57
2022-08-25T13:18:51.843Z,39.01
2022-08-25T13:21:24.856Z,39.89
2022-08-25T13:23:49.734Z,41.38
2022-08-25T13:26:21.140Z,41.52
2022-08-25T13:28:50.596Z,41.77
2022-08-25T13:31:18.632Z,40.99
2022-08-25T13:33:57.602Z,40.16
2022-08-25T13:36:37.990Z,40.07
2022-08-25T13:39:12.543Z,39.54
2022-08-25T13:41:34.123Z,39.90
2022-08-25T13:43:56.840Z,39.25
2022-08-25T13:46:23.059Z,39.07
2022-08-25T13:48:49.337Z,39.19
2022-08-25T13:51:31.258Z,39.08
2022-08-25T13:54:00.220Z,39.21
2022-08-25T13:56:41.204Z,38.61
2022-08-25T13:59:06.304Z,38.24
2022-08-25T14:01:47.770Z,38.26
2022-08-25T14:04:30.881Z,37.79
2022-08-25T14:07:33.658Z,37.49
2022-08-25T14:09:55.925Z,37.54
2022-08-25T14:14:59.132Z,37.61
2022-08-25T14:17:38.154Z,37.77
2022-08-25T14:20:02.111Z,37.76
2022-08-25T14:22:23.867Z,37.43
2022-08-25T14:24:46.491Z,37.80
2022-08-25T14:27:07.945Z,38.94
2022-08-25T14:29:35.538Z,39.39
2022-08-25T14:32:03.209Z,38.86
2022-08-25T14:34:29.465Z,39.03
2022-08-25T14:36:51.888Z,40.26
2022-08-25T14:39:14.465Z,41.15
2022-08-25T14:41:40.805Z,41.38
2022-08-25T14:44:05.168Z,42.38
2022-08-25T14:46:29.374Z,43.21
2022-08-25T14:48:55.518Z,43.75
2022-08-25T14:51:17.054Z,43.87
2022-08-25T14:53:38.787Z,43.72
2022-08-25T14:56:01.368Z,43.19
2022-08-25T14:58:33.897Z,42.88
2022-08-25T15:00:57.499Z,42.99
2022-08-25T15:03:29.635Z,42.48
2022-08-25T15:05:53.169Z,41.76
2022-08-25T15:08:40.965Z,41.92
2022-08-25T15:11:09.038Z,41.69
2022-08-25T15:13:31.170Z,41.28
2022-08-25T15:15:53.376Z,41.19
2022-08-25T15:18:17.121Z,41.91
2022-08-25T15:20:38.600Z,41.32
2022-08-25T15:23:00.096Z,40.44
2022-08-25T15:25:22.860Z,40.25
2022-08-25T15:27:46.878Z,39.69
2022-08-25T15:30:09.134Z,39.38
2022-08-25T15:32:34.536Z,39.91
2022-08-25T15:34:56.823Z,40.88
2022-08-25T15:37:18.302Z,40.89
2022-08-25T15:39:43.114Z,40.64
2022-08-25T15:42:06.463Z,41.45
2022-08-25T15:44:29.648Z,42.00
2022-08-25T15:46:51.714Z,42.83
2022-08-25T15:49:13.272Z,43.61
2022-08-25T15:51:35.150Z,43.69
2022-08-25T15:53:57.656Z,43.77
2022-08-25T15:56:26.490Z,43.33
2022-08-25T15:58:49.932Z,43.16
2022-08-25T16:01:16.644Z,43.55
2022-08-25T16:03:40.961Z,43.61
2022-08-25T16:06:04.164Z,42.29
2022-08-25T16:08:25.721Z,41.83
2022-08-25T16:10:47.516Z,41.74
2022-08-25T16:13:09.874Z,41.52
2022-08-25T16:15:32.916Z,42.02
2022-08-25T16:17:54.630Z,42.00
2022-08-25T16:20:17.200Z,41.56
2022-08-25T16:22:39.403Z,41.41
2022-08-25T16:25:01.993Z,41.34
2022-08-25T16:27:24.242Z,41.04
2022-08-25T16:29:45.809Z,40.70
2022-08-25T16:32:08.014Z,40.68
2022-08-25T16:34:30.891Z,40.65
2022-08-25T16:36:54.717Z,40.05
2022-08-25T16:39:16.190Z,39.51
2022-08-25T16:41:37.640Z,39.40
2022-08-25T16:44:07.658Z,39.20
2022-08-25T16:46:32.878Z,38.80
2022-08-25T16:48:54.704Z,38.49
2022-08-25T16:51:19.438Z,37.80
2022-08-25T16:54:03.370Z,37.44
2022-08-25T16:56:25.156Z,36.96
2022-08-25T16:58:48.835Z,36.65
2022-08-25T17:01:13.818Z,36.74
2022-08-25T17:03:36.240Z,36.19
2022-08-25T17:05:59.174Z,36.26
2022-08-25T17:08:30.758Z,36.08
2022-08-25T17:10:52.436Z,35.72
2022-08-25T17:13:14.368Z,35.50
2022-08-25T17:15:40.692Z,35.36
2022-08-25T17:18:02.291Z,35.38
2022-08-25T17:20:26.071Z,35.18
2022-08-25T17:22:49.708Z,34.98
2022-08-25T17:25:11.188Z,34.90
2022-08-25T17:27:32.653Z,34.99
2022-08-25T17:29:54.628Z,35.00
2022-08-25T17:32:17.342Z,34.93
2022-08-25T17:34:39.131Z,34.88
2022-08-25T17:37:00.605Z,34.80
2022-08-25T17:39:22.748Z,34.62
2022-08-25T17:41:45.150Z,34.65
2022-08-25T17:44:06.595Z,34.58
2022-08-25T17:46:28.446Z,34.41
2022-08-25T17:48:50.370Z,34.36
2022-08-25T17:51:11.907Z,34.18
2022-08-25T17:53:34.980Z,34.31
2022-08-25T17:56:00.266Z,34.26
2022-08-25T17:58:22.561Z,34.40
2022-08-25T18:00:45.751Z,34.19
2022-08-25T18:03:08.219Z,34.15
2022-08-25T18:05:33.049Z,34.14
2022-08-25T18:07:54.614Z,34.02
2022-08-25T18:10:17.413Z,34.02
2022-08-25T18:12:39.234Z,33.95
2022-08-25T18:15:01.082Z,33.87
2022-08-25T18:17:22.989Z,33.84
2022-08-25T18:19:46.172Z,33.71
2022-08-25T18:22:08.284Z,33.55
2022-08-25T18:24:29.945Z,33.22
2022-08-25T18:26:51.874Z,33.10
2022-08-25T18:29:14.098Z,33.02
2022-08-25T18:31:38.179Z,32.84
2022-08-25T18:33:59.684Z,32.73
2022-08-25T18:36:21.333Z,32.55
2022-08-25T18:39:02.827Z,32.27
2022-08-25T18:41:24.586Z,32.09
2022-08-25T18:43:46.170Z,31.81
2022-08-25T18:46:08.284Z,31.68
2022-08-25T18:48:34.773Z,31.55
2022-08-25T18:50:56.805Z,31.57
2022-08-25T18:53:30.510Z,31.45
2022-08-25T18:55:59.273Z,31.37
2022-08-25T18:58:22.734Z,31.16
2022-08-25T19:00:45.882Z,30.93
2022-08-25T19:03:10.056Z,30.86
2022-08-25T19:05:34.708Z,30.87
2022-08-25T19:07:56.233Z,30.75
2022-08-25T19:10:19.603Z,30.68
2022-08-25T19:12:41.192Z,30.52
2022-08-25T19:15:03.371Z,30.52
2022-08-25T19:17:26.505Z,30.31
2022-08-25T19:19:49.423Z,30.23
2022-08-25T19:22:31.644Z,30.18
2022-08-25T19:24:52.627Z,30.16
2022-08-25T19:27:14.600Z,30.13
2022-08-25T19:29:36.191Z,30.09
2022-08-25T19:32:01.315Z,29.88
2022-08-25T19:34:28.150Z,29.87
2022-08-25T19:36:51.820Z,29.88
2022-08-25T19:39:15.246Z,29.75
2022-08-25T19:41:38.300Z,29.73
2022-08-25T19:44:02.794Z,29.68
2022-08-25T19:46:33.006Z,29.66
2022-08-25T19:48:56.936Z,29.60
2022-08-25T19:51:19.131Z,29.53
2022-08-25T19:53:41.271Z,29.48
2022-08-25T19:56:03.758Z,29.44
2022-08-25T19:58:25.615Z,29.39
2022-08-25T20:00:51.127Z,29.34
2022-08-25T20:03:12.812Z,29.29
2022-08-25T20:05:35.889Z,29.27
2022-08-25T20:07:57.739Z,29.24
2022-08-25T20:10:21.214Z,29.17
2022-08-25T20:12:44.657Z,29.16
2022-08-25T20:15:09.338Z,29.08
2022-08-25T20:17:31.224Z,29.09
2022-08-25T20:19:55.757Z,28.94
2022-08-25T20:22:18.283Z,28.93
2022-08-25T20:24:51.094Z,28.89
2022-08-25T20:27:20.717Z,28.83
2022-08-25T20:29:44.667Z,28.77
2022-08-25T20:32:06.492Z,28.77
2022-08-25T20:34:29.044Z,28.72
2022-08-25T20:36:50.536Z,28.67
2022-08-25T20:39:12.068Z,28.68
2022-08-25T20:41:33.832Z,28.60
2022-08-25T20:43:57.226Z,28.47
2022-08-25T20:46:19.228Z,28.45
2022-08-25T20:48:40.825Z,28.29
2022-08-25T20:51:09.453Z,28.32
2022-08-25T20:53:34.937Z,28.24
2022-08-25T20:55:57.572Z,28.13
2022-08-25T20:58:19.029Z,27.99
2022-08-25T21:00:44.731Z,27.88
2022-08-25T21:03:06.188Z,27.69
2022-08-25T21:05:28.413Z,27.72
2022-08-25T21:07:49.914Z,27.69
2022-08-25T21:10:14.377Z,27.63
2022-08-25T21:12:36.582Z,27.62
2022-08-25T21:14:58.232Z,27.58
2022-08-25T21:17:19.735Z,27.43
2022-08-25T21:19:42.345Z,27.40
2022-08-25T21:22:04.083Z,27.25
2022-08-25T21:24:26.003Z,27.15
2022-08-25T21:26:49.839Z,27.11
2022-08-25T21:29:11.325Z,27.14
2022-08-25T21:31:36.807Z,27.02
2022-08-25T21:33:59.581Z,26.83
2022-08-25T21:36:24.469Z,26.84
2022-08-25T21:38:47.118Z,26.70
2022-08-25T21:41:11.135Z,26.50
2022-08-25T21:43:32.597Z,26.32
2022-08-25T21:45:54.215Z,26.19
2022-08-25T21:48:17.944Z,26.11
2022-08-25T21:50:39.533Z,26.10
2022-08-25T21:53:01.100Z,26.09
2022-08-25T21:55:23.468Z,26.06
2022-08-25T21:57:44.900Z,26.01
2022-08-25T22:00:07.983Z,25.95
2022-08-25T22:02:30.542Z,25.88
2022-08-25T22:04:53.662Z,25.92
2022-08-25T22:07:15.099Z,25.73
2022-08-25T22:09:37.057Z,25.75
2022-08-25T22:11:58.631Z,25.70
2022-08-25T22:14:20.678Z,25.69
2022-08-25T22:16:42.674Z,25.54
2022-08-25T22:19:06.266Z,25.49
2022-08-25T22:23:50.845Z,25.34
2022-08-25T22:26:15.495Z,25.35
2022-08-25T22:28:37.016Z,25.30
2022-08-25T22:31:06.728Z,25.36
2022-08-25T22:33:30.486Z,25.27
2022-08-25T22:35:59.793Z,25.31
2022-08-25T22:38:21.769Z,25.25
2022-08-25T22:40:45.321Z,25.30
2022-08-25T22:43:10.849Z,25.23
2022-08-25T22:45:33.439Z,25.05
2022-08-25T22:47:55.419Z,25.00
2022-08-25T22:50:17.417Z,24.68
2022-08-25T22:52:42.431Z,24.32
2022-08-25T22:55:05.507Z,24.48
2022-08-25T22:57:34.512Z,24.47
2022-08-25T22:59:56.674Z,24.39
2022-08-25T23:02:18.283Z,24.41
2022-08-25T23:04:43.277Z,24.41
2022-08-25T23:07:05.286Z,24.39
2022-08-25T23:09:28.066Z,24.34
2022-08-25T23:11:51.364Z,24.09
2022-08-25T23:14:13.041Z,24.03
2022-08-25T23:16:34.563Z,23.94
2022-08-25T23:18:56.543Z,23.71
2022-08-25T23:21:41.048Z,23.71
2022-08-25T23:24:03.988Z,23.79
2022-08-25T23:26:26.260Z,23.72
2022-08-25T23:28:48.575Z,23.71
2022-08-25T23:31:12.306Z,23.63
2022-08-25T23:33:34.211Z,23.63
2022-08-25T23:36:00.731Z,23.43
2022-08-25T23:38:23.188Z,23.29
2022-08-25T23:40:44.687Z,23.17
2022-08-25T23:43:06.548Z,23.20
2022-08-25T23:45:28.345Z,23.23
2022-08-25T23:47:51.759Z,23.32
2022-08-25T23:50:14.064Z,23.31
2022-08-25T23:52:36.012Z,23.24
2022-08-25T23:54:58.068Z,23.12
2022-08-25T23:57:19.632Z,22.93
2022-08-25T23:59:41.330Z,22.91
